createdAt,value
2022-12-05T00:01:23.534Z,22.85
2022-12-05T00:03:54.002Z,21.40
2022-12-05T00:06:22.957Z,22.95
2022-12-05T00:08:51.785Z,23.48
2022-12-05T00:11:27.808Z,23.75
2022-12-05T00:13:56.963Z,23.38
2022-12-05T00:16:26.594Z,22.87
2022-12-05T00:18:54.174Z,24.65
2022-12-05T00:21:26.547Z,22.33
2022-12-05T00:23:55.636Z,23.45
2022-12-05T00:26:23.197Z,23.13
2022-12-05T00:28:52.608Z,23.25
2022-12-05T00:31:21.817Z,24.13
2022-12-05T00:33:49.699Z,24.35
2022-12-05T00:36:18.695Z,23.98
2022-12-05T00:38:46.214Z,24.20
2022-12-05T00:41:19.984Z,25.10
2022-12-05T00:43:47.992Z,25.60
2022-12-05T00:46:18.472Z,24.23
2022-12-05T00:48:46.253Z,23.52
2022-12-05T00:51:23.168Z,24.20
2022-12-05T00:53:50.781Z,21.70
2022-12-05T00:56:20.330Z,24.63
2022-12-05T00:58:48.455Z,23.50
2022-12-05T01:01:21.805Z,23.38
2022-12-05T01:03:49.448Z,24.38
2022-12-05T01:06:17.114Z,24.23
2022-12-05T01:08:44.526Z,22.90
2022-12-05T01:11:15.296Z,23.65
2022-12-05T01:13:43.133Z,24.55
2022-12-05T01:16:21.505Z,25.17
2022-12-05T01:18:49.383Z,24.77
2022-12-05T01:21:17.374Z,24.00
2022-12-05T01:23:44.721Z,24.77
2022-12-05T01:26:14.620Z,24.80
2022-12-05T01:31:31.432Z,23.67
2022-12-05T01:34:00.487Z,24.75
2022-12-05T01:36:28.461Z,24.38
2022-12-05T01:38:56.265Z,25.30
2022-12-05T01:41:26.229Z,25.88
2022-12-05T01:46:39.910Z,26.48
2022-12-05T01:49:11.345Z,25.40
2022-12-05T01:51:41.298Z,25.05
2022-12-05T01:56:36.143Z,26.17
2022-12-05T01:59:05.519Z,24.98
2022-12-05T02:01:32.868Z,25.88
2022-12-05T02:04:00.431Z,27.73
2022-12-05T02:06:28.593Z,26.38
2022-12-05T02:08:56.015Z,25.25
2022-12-05T02:11:25.417Z,27.95
2022-12-05T02:14:10.456Z,27.98
2022-12-05T02:16:46.861Z,27.48
2022-12-05T02:19:27.530Z,28.27
2022-12-05T02:22:01.223Z,29.15
2022-12-05T02:24:28.628Z,27.55
2022-12-05T02:27:38.743Z,30.02
2022-12-05T02:30:11.540Z,29.63
2022-12-05T02:32:50.516Z,29.08
2022-12-05T02:35:36.296Z,29.52
2022-12-05T02:38:03.549Z,28.27
2022-12-05T02:40:35.459Z,28.30
2022-12-05T02:43:24.215Z,27.70
2022-12-05T02:45:54.167Z,28.90
2022-12-05T02:48:21.510Z,29.35
2022-12-05T02:50:49.317Z,27.13
2022-12-05T02:53:18.036Z,28.67
2022-12-05T02:55:45.767Z,28.45
2022-12-05T02:58:21.968Z,29.30
2022-12-05T03:00:50.507Z,28.73
2022-12-05T03:03:19.576Z,29.20
2022-12-05T03:05:57.436Z,30.88
2022-12-05T03:08:30.066Z,28.13
2022-12-05T03:10:58.853Z,27.38
2022-12-05T03:13:29.445Z,28.48
2022-12-05T03:16:00.652Z,26.17
2022-12-05T03:18:34.226Z,26.02
2022-12-05T03:21:08.925Z,25.83
2022-12-05T03:23:42.267Z,28.67
2022-12-05T03:26:20.637Z,27.63
2022-12-05T03:29:11.882Z,27.58
2022-12-05T03:31:52.626Z,27.65
2022-12-05T03:34:35.052Z,27.63
2022-12-05T03:37:07.125Z,26.98
2022-12-05T03:39:35.847Z,28.20
2022-12-05T03:42:14.005Z,30.30
2022-12-05T03:44:47.156Z,29.83
2022-12-05T03:47:33.209Z,30.30
2022-12-05T03:50:04.511Z,30.45
2022-12-05T03:53:03.696Z,30.42
2022-12-05T03:55:29.937Z,31.55
2022-12-05T03:58:08.902Z,31.53
2022-12-05T04:00:41.354Z,30.45
2022-12-05T04:03:24.542Z,32.63
2022-12-05T04:05:56.915Z,31.40
2022-12-05T04:08:31.506Z,31.58
2022-12-05T04:11:03.687Z,31.88
2022-12-05T04:13:33.966Z,31.55
2022-12-05T04:16:23.559Z,30.75
2022-12-05T04:18:56.742Z,29.42
2022-12-05T04:21:39.121Z,31.75
2022-12-05T04:24:29.095Z,31.95
2022-12-05T04:29:53.247Z,32.53
2022-12-05T04:32:25.012Z,33.08
2022-12-05T04:34:55.926Z,32.55
2022-12-05T04:37:30.969Z,30.92
2022-12-05T04:40:04.551Z,33.78
2022-12-05T04:42:33.770Z,34.42
2022-12-05T04:45:08.345Z,35.15
2022-12-05T04:47:46.208Z,34.85
2022-12-05T04:50:14.546Z,34.88
2022-12-05T04:52:43.531Z,34.20
2022-12-05T04:55:16.223Z,33.37
2022-12-05T04:58:19.945Z,33.35
2022-12-05T05:00:52.995Z,34.08
2022-12-05T05:03:31.192Z,35.53
2022-12-05T05:05:58.793Z,36.90
2022-12-05T05:08:29.029Z,33.60
2022-12-05T05:11:11.766Z,33.78
2022-12-05T05:13:39.239Z,32.38
2022-12-05T05:16:07.137Z,34.17
2022-12-05T05:18:34.661Z,31.63
2022-12-05T05:21:01.957Z,32.40
2022-12-05T05:23:29.183Z,34.20
2022-12-05T05:25:56.631Z,34.00
2022-12-05T05:28:23.892Z,31.35
2022-12-05T05:30:51.264Z,32.42
2022-12-05T05:33:18.695Z,29.60
2022-12-05T05:35:46.010Z,28.55
2022-12-05T05:38:13.239Z,30.67
2022-12-05T05:40:40.633Z,31.30
2022-12-05T05:43:08.348Z,31.17
2022-12-05T05:45:36.938Z,30.50
2022-12-05T05:48:04.529Z,31.00
2022-12-05T05:50:31.752Z,28.50
2022-12-05T05:52:59.442Z,29.60
2022-12-05T05:55:26.767Z,27.90
2022-12-05T05:57:54.154Z,26.90
2022-12-05T06:00:21.721Z,28.02
2022-12-05T06:02:49.118Z,27.00
2022-12-05T06:05:16.479Z,26.98
2022-12-05T06:07:43.838Z,23.80
2022-12-05T06:10:11.317Z,27.45
2022-12-05T06:12:38.607Z,26.00
2022-12-05T06:15:06.601Z,26.67
2022-12-05T06:17:33.856Z,26.27
2022-12-05T06:20:01.220Z,27.35
2022-12-05T06:22:29.816Z,28.75
2022-12-05T06:24:57.220Z,27.42
2022-12-05T06:27:24.577Z,27.73
2022-12-05T06:29:52.957Z,28.80
2022-12-05T06:32:20.320Z,30.40
2022-12-05T06:34:47.610Z,29.65
2022-12-05T06:37:15.119Z,29.65
2022-12-05T06:39:42.478Z,30.73
2022-12-05T06:42:09.814Z,30.77
2022-12-05T06:44:37.151Z,30.30
2022-12-05T06:47:04.461Z,30.23
2022-12-05T06:49:37.616Z,30.27
2022-12-05T06:52:05.375Z,28.33
2022-12-05T06:54:32.861Z,30.48
2022-12-05T06:57:00.085Z,32.65
2022-12-05T06:59:27.352Z,29.50
2022-12-05T07:01:54.721Z,29.40
2022-12-05T07:04:26.324Z,27.45
2022-12-05T07:06:55.061Z,29.60
2022-12-05T07:09:45.136Z,29.58
2022-12-05T07:12:14.068Z,28.98
2022-12-05T07:14:49.860Z,29.90
2022-12-05T07:17:21.453Z,28.92
2022-12-05T07:19:52.198Z,26.92
2022-12-05T07:22:21.451Z,28.10
2022-12-05T07:24:49.040Z,27.85
2022-12-05T07:27:18.474Z,27.33
2022-12-05T07:29:48.081Z,27.17
2022-12-05T07:32:15.394Z,26.60
2022-12-05T07:34:42.720Z,28.10
2022-12-05T07:37:10.028Z,27.40
2022-12-05T07:39:37.339Z,26.75
2022-12-05T07:42:04.611Z,26.73
2022-12-05T07:44:32.035Z,27.13
2022-12-05T07:46:59.455Z,27.08
2022-12-05T07:49:26.825Z,26.15
2022-12-05T07:51:54.157Z,26.45
2022-12-05T07:54:21.410Z,27.20
2022-12-05T07:56:48.624Z,27.48
2022-12-05T07:59:15.955Z,25.08
2022-12-05T08:01:43.323Z,26.00
2022-12-05T08:04:15.061Z,26.02
2022-12-05T08:06:42.937Z,26.35
2022-12-05T08:09:10.688Z,26.75
2022-12-05T08:11:39.466Z,27.23
2022-12-05T08:14:08.295Z,26.15
2022-12-05T08:16:35.679Z,26.38
2022-12-05T08:19:05.833Z,27.00
2022-12-05T08:21:33.643Z,27.48
2022-12-05T08:24:00.953Z,27.55
2022-12-05T08:26:30.775Z,30.13
2022-12-05T08:28:59.224Z,32.92
2022-12-05T08:31:28.261Z,27.35
2022-12-05T08:33:59.305Z,28.50
2022-12-05T08:36:28.765Z,30.08
2022-12-05T08:38:57.699Z,29.47
2022-12-05T08:41:28.675Z,30.20
2022-12-05T08:43:58.419Z,28.83
2022-12-05T08:46:26.025Z,28.85
2022-12-05T08:48:53.415Z,29.77
2022-12-05T08:51:20.772Z,30.98
2022-12-05T08:53:48.028Z,28.98
2022-12-05T08:56:15.345Z,30.50
2022-12-05T08:58:42.641Z,29.75
2022-12-05T09:01:15.089Z,28.48
2022-12-05T09:03:47.606Z,29.20
2022-12-05T09:06:19.211Z,29.15
2022-12-05T09:08:47.338Z,30.50
2022-12-05T09:11:20.180Z,30.45
2022-12-05T09:13:48.126Z,29.50
2022-12-05T09:16:26.642Z,31.08
2022-12-05T09:18:53.945Z,31.15
2022-12-05T09:21:23.705Z,30.85
2022-12-05T09:23:51.506Z,31.50
2022-12-05T09:26:22.275Z,31.33
2022-12-05T09:28:49.593Z,30.25
2022-12-05T09:31:19.765Z,30.17
2022-12-05T09:33:47.581Z,30.60
2022-12-05T09:36:21.502Z,30.08
2022-12-05T09:38:49.546Z,29.08
2022-12-05T09:41:57.051Z,29.33
2022-12-05T09:44:43.446Z,30.50
2022-12-05T09:47:15.719Z,30.33
2022-12-05T09:49:50.031Z,30.48
2022-12-05T09:52:27.604Z,29.38
2022-12-05T09:54:55.749Z,30.75
2022-12-05T09:57:36.069Z,31.45
2022-12-05T10:00:07.343Z,31.70
2022-12-05T10:02:46.137Z,30.13
2022-12-05T10:05:24.974Z,28.33
2022-12-05T10:08:16.951Z,30.35
2022-12-05T10:11:29.535Z,28.10
2022-12-05T10:14:27.070Z,29.05
2022-12-05T10:17:21.346Z,30.52
2022-12-05T10:19:49.923Z,30.13
2022-12-05T10:22:22.944Z,31.85
2022-12-05T10:24:54.283Z,31.60
2022-12-05T10:27:39.511Z,31.50
2022-12-05T10:30:17.975Z,32.50
2022-12-05T10:32:58.466Z,31.75
2022-12-05T10:35:37.154Z,30.70
2022-12-05T10:38:07.336Z,30.98
2022-12-05T10:40:39.679Z,31.73
2022-12-05T10:43:08.854Z,30.40
2022-12-05T10:45:43.677Z,29.93
2022-12-05T10:48:13.077Z,30.45
2022-12-05T10:50:42.476Z,31.15
2022-12-05T10:53:16.501Z,31.55
2022-12-05T10:56:28.350Z,30.20
2022-12-05T10:58:39.859Z,32.15
2022-12-05T11:01:09.437Z,30.27
2022-12-05T11:03:41.342Z,30.75
2022-12-05T11:06:24.008Z,30.48
2022-12-05T11:09:05.641Z,30.88
2022-12-05T11:11:33.890Z,31.90
2022-12-05T11:14:02.887Z,30.25
2022-12-05T11:16:40.033Z,31.80
2022-12-05T11:19:22.822Z,30.65
2022-12-05T11:21:50.496Z,30.08
2022-12-05T11:24:47.569Z,31.65
2022-12-05T11:27:18.202Z,30.23
2022-12-05T11:29:55.960Z,30.92
2022-12-05T11:32:25.958Z,32.50
2022-12-05T11:35:04.530Z,33.10
2022-12-05T11:37:46.015Z,34.35
2022-12-05T11:40:30.879Z,33.50
2022-12-05T11:43:15.197Z,30.42
2022-12-05T11:45:51.554Z,31.23
2022-12-05T11:48:22.305Z,32.83
2022-12-05T11:50:59.064Z,33.28
2022-12-05T11:53:51.423Z,30.50
2022-12-05T11:57:12.630Z,30.25
2022-12-05T11:59:39.909Z,31.60
2022-12-05T12:02:35.353Z,32.53
2022-12-05T12:05:14.585Z,35.83
2022-12-05T12:07:57.120Z,31.90
2022-12-05T12:10:48.676Z,34.72
2022-12-05T12:13:57.626Z,32.97
2022-12-05T12:16:37.028Z,35.72
2022-12-05T12:19:10.878Z,34.10
2022-12-05T12:21:54.556Z,34.08
2022-12-05T12:24:39.815Z,62.97
2022-12-05T12:27:32.079Z,34.65
2022-12-05T12:30:12.341Z,33.72
2022-12-05T12:35:37.063Z,33.67
2022-12-05T12:38:17.640Z,34.83
2022-12-05T12:40:50.872Z,33.65
2022-12-05T12:43:52.715Z,33.20
2022-12-05T12:46:20.243Z,34.85
2022-12-05T12:49:03.950Z,36.35
2022-12-05T12:51:33.495Z,35.42
2022-12-05T12:54:25.280Z,36.38
2022-12-05T12:57:39.831Z,35.85
2022-12-05T13:00:29.061Z,33.20
2022-12-05T13:03:02.050Z,34.83
2022-12-05T13:05:41.739Z,32.58
2022-12-05T13:08:35.408Z,34.03
2022-12-05T13:11:06.035Z,32.55
2022-12-05T13:13:37.219Z,31.90
2022-12-05T13:16:08.002Z,33.88
2022-12-05T13:18:35.750Z,33.60
2022-12-05T13:21:07.593Z,34.55
2022-12-05T13:23:43.760Z,34.22
2022-12-05T13:26:12.202Z,34.35
2022-12-05T13:28:47.215Z,35.90
2022-12-05T13:31:39.628Z,36.83
2022-12-05T13:34:27.462Z,33.33
2022-12-05T13:37:15.661Z,32.80
2022-12-05T13:40:09.737Z,33.88
2022-12-05T13:42:37.954Z,34.22
2022-12-05T13:45:05.177Z,33.85
2022-12-05T13:47:35.103Z,32.28
2022-12-05T13:50:23.642Z,34.10
2022-12-05T13:52:56.562Z,33.65
2022-12-05T13:55:36.776Z,32.90
2022-12-05T13:58:16.526Z,34.60
2022-12-05T14:00:45.363Z,36.53
2022-12-05T14:03:35.573Z,33.72
2022-12-05T14:06:03.037Z,34.55
2022-12-05T14:08:30.227Z,33.90
2022-12-05T14:10:57.429Z,33.80
2022-12-05T14:13:25.660Z,34.15
2022-12-05T14:15:54.688Z,31.23
2022-12-05T14:18:31.188Z,30.88
2022-12-05T14:21:11.530Z,32.60
2022-12-05T14:23:57.580Z,33.38
2022-12-05T14:26:48.963Z,32.58
2022-12-05T14:29:36.850Z,32.00
2022-12-05T14:32:19.167Z,29.77
2022-12-05T14:34:58.149Z,31.20
2022-12-05T14:37:29.233Z,30.65
2022-12-05T14:39:58.706Z,30.23
2022-12-05T14:42:39.328Z,30.65
2022-12-05T14:45:30.091Z,31.50
2022-12-05T14:47:59.654Z,31.30
2022-12-05T14:50:40.872Z,30.73
2022-12-05T14:53:15.753Z,29.52
2022-12-05T14:55:50.734Z,29.92
2022-12-05T14:58:22.284Z,28.27
2022-12-05T15:00:58.081Z,30.80
2022-12-05T15:03:30.864Z,30.23
2022-12-05T15:06:03.675Z,29.58
2022-12-05T15:08:47.391Z,30.33
2022-12-05T15:11:28.455Z,28.58
2022-12-05T15:14:00.509Z,28.60
2022-12-05T15:16:30.001Z,29.38
2022-12-05T15:19:05.274Z,28.80
2022-12-05T15:21:36.544Z,29.02
2022-12-05T15:24:21.924Z,29.10
2022-12-05T15:26:50.504Z,30.25
2022-12-05T15:29:29.156Z,28.13
2022-12-05T15:32:02.402Z,27.52
2022-12-05T15:34:45.967Z,28.73
2022-12-05T15:37:25.904Z,27.20
2022-12-05T15:40:11.122Z,27.55
2022-12-05T15:42:49.945Z,27.23
2022-12-05T15:45:20.014Z,26.38
2022-12-05T15:50:33.814Z,24.55
2022-12-05T15:53:05.654Z,23.92
2022-12-05T15:55:39.360Z,26.42
2022-12-05T15:58:13.445Z,26.42
2022-12-05T16:00:59.643Z,26.60
2022-12-05T16:03:49.249Z,26.13
2022-12-05T16:06:20.372Z,25.13
2022-12-05T16:08:48.103Z,26.23
2022-12-05T16:11:16.140Z,25.92
2022-12-05T16:13:49.912Z,26.33
2022-12-05T16:16:24.341Z,26.15
2022-12-05T16:19:00.202Z,26.13
2022-12-05T16:21:33.103Z,25.92
2022-12-05T16:24:08.483Z,24.80
2022-12-05T16:26:39.709Z,25.17
2022-12-05T16:29:09.569Z,25.52
2022-12-05T16:31:36.933Z,25.08
2022-12-05T16:34:07.616Z,22.58
2022-12-05T16:36:35.244Z,23.63
2022-12-05T16:39:07.211Z,23.27
2022-12-05T16:41:36.322Z,22.80
2022-12-05T16:44:10.761Z,24.17
2022-12-05T16:46:40.339Z,22.25
2022-12-05T16:49:33.043Z,22.08
2022-12-05T16:52:09.675Z,22.45
2022-12-05T16:54:37.063Z,26.48
2022-12-05T16:57:04.630Z,21.92
2022-12-05T16:59:37.248Z,20.35
2022-12-05T17:02:10.216Z,18.95
2022-12-05T17:04:38.709Z,20.08
2022-12-05T17:07:06.002Z,21.23
2022-12-05T17:09:33.363Z,20.60
2022-12-05T17:12:24.043Z,20.20
2022-12-05T17:14:51.300Z,20.77
2022-12-05T17:17:19.051Z,20.10
2022-12-05T17:19:46.437Z,20.63
2022-12-05T17:22:15.480Z,19.48
2022-12-05T17:24:43.106Z,19.38
2022-12-05T17:27:11.954Z,19.98
2022-12-05T17:29:39.266Z,20.38
2022-12-05T17:32:06.557Z,20.10
2022-12-05T17:34:34.874Z,21.20
2022-12-05T17:37:03.056Z,20.33
2022-12-05T17:39:31.386Z,21.55
2022-12-05T17:41:59.025Z,21.17
2022-12-05T17:44:26.483Z,19.58
2022-12-05T17:46:55.069Z,20.33
2022-12-05T17:49:22.942Z,21.02
2022-12-05T17:52:20.405Z,20.52
2022-12-05T17:54:41.009Z,20.88
2022-12-05T17:57:08.417Z,20.92
2022-12-05T17:59:35.656Z,21.33
2022-12-05T18:02:02.946Z,20.17
2022-12-05T18:04:30.207Z,21.17
2022-12-05T18:06:57.506Z,21.67
2022-12-05T18:09:24.716Z,21.45
2022-12-05T18:11:51.967Z,22.17
2022-12-05T18:14:19.208Z,21.85
2022-12-05T18:16:46.745Z,21.27
2022-12-05T18:19:15.125Z,22.45
2022-12-05T18:21:42.494Z,22.85
2022-12-05T18:24:10.413Z,23.55
2022-12-05T18:26:37.661Z,22.38
2022-12-05T18:29:04.950Z,21.25
2022-12-05T18:31:32.505Z,20.92
2022-12-05T18:33:59.863Z,23.90
2022-12-05T18:36:27.282Z,23.50
2022-12-05T18:38:56.084Z,22.30
2022-12-05T18:41:24.149Z,22.75
2022-12-05T18:43:51.564Z,21.25
2022-12-05T18:46:19.521Z,21.58
2022-12-05T18:48:47.960Z,23.23
2022-12-05T18:51:18.937Z,24.83
2022-12-05T18:53:52.526Z,23.13
2022-12-05T18:56:31.514Z,21.80
2022-12-05T18:59:04.790Z,22.73
2022-12-05T19:01:34.399Z,23.55
2022-12-05T19:04:03.982Z,23.02
2022-12-05T19:06:32.931Z,22.40
2022-12-05T19:09:02.585Z,22.17
2022-12-05T19:11:29.930Z,21.67
2022-12-05T19:13:58.635Z,21.75
2022-12-05T19:16:28.117Z,27.08
2022-12-05T19:18:57.025Z,23.45
2022-12-05T19:21:25.112Z,22.88
2022-12-05T19:23:52.771Z,23.05
2022-12-05T19:26:20.278Z,23.73
2022-12-05T19:28:47.689Z,23.77
2022-12-05T19:31:18.203Z,23.50
2022-12-05T19:33:47.910Z,23.25
2022-12-05T19:36:22.940Z,23.48
2022-12-05T19:38:51.483Z,25.85
2022-12-05T19:41:21.998Z,25.40
2022-12-05T19:43:49.394Z,26.17
2022-12-05T19:46:20.673Z,25.33
2022-12-05T19:48:48.304Z,24.42
2022-12-05T19:51:15.764Z,23.40
2022-12-05T19:53:44.058Z,22.92
2022-12-05T19:56:24.950Z,22.38
2022-12-05T19:58:53.961Z,23.20
2022-12-05T20:01:27.839Z,23.63
2022-12-05T20:04:06.727Z,24.63
2022-12-05T20:06:43.163Z,24.35
2022-12-05T20:09:21.453Z,26.40
2022-12-05T20:11:55.044Z,26.05
2022-12-05T20:14:25.297Z,24.42
2022-12-05T20:19:20.676Z,22.65
2022-12-05T20:21:48.190Z,26.00
2022-12-05T20:24:15.465Z,24.52
2022-12-05T20:26:44.109Z,23.48
2022-12-05T20:29:11.353Z,24.77
2022-12-05T20:31:41.050Z,24.83
2022-12-05T20:34:14.778Z,23.80
2022-12-05T20:36:42.552Z,24.50
2022-12-05T20:39:14.703Z,23.90
2022-12-05T20:41:42.303Z,24.98
2022-12-05T20:44:13.487Z,23.92
2022-12-05T20:46:41.655Z,25.98
2022-12-05T20:49:09.250Z,24.17
2022-12-05T20:51:36.564Z,25.25
2022-12-05T20:54:05.374Z,26.73
2022-12-05T20:56:34.265Z,27.63
2022-12-05T20:59:03.987Z,27.38
2022-12-05T21:01:33.241Z,29.20
2022-12-05T21:04:01.428Z,28.92
2022-12-05T21:06:33.837Z,27.08
2022-12-05T21:09:01.974Z,25.05
2022-12-05T21:11:30.322Z,24.98
2022-12-05T21:14:00.255Z,25.45
2022-12-05T21:16:27.744Z,24.60
2022-12-05T21:18:56.156Z,23.63
2022-12-05T21:21:25.931Z,23.27
2022-12-05T21:23:58.242Z,23.88
2022-12-05T21:26:27.096Z,23.40
2022-12-05T21:28:54.871Z,21.75
2022-12-05T21:31:26.279Z,24.20
2022-12-05T21:33:56.890Z,24.45
2022-12-05T21:36:25.167Z,22.60
2022-12-05T21:38:56.203Z,23.05
2022-12-05T21:41:26.895Z,22.40
2022-12-05T21:43:55.686Z,21.48
2022-12-05T21:46:26.891Z,22.70
2022-12-05T21:48:54.872Z,22.00
2022-12-05T21:51:22.951Z,22.20
2022-12-05T21:53:50.562Z,21.10
2022-12-05T21:56:22.641Z,20.88
2022-12-05T21:58:50.409Z,21.17
2022-12-05T22:01:19.944Z,20.00
2022-12-05T22:03:47.587Z,20.50
2022-12-05T22:06:15.421Z,20.00
2022-12-05T22:08:43.306Z,19.58
2022-12-05T22:11:18.656Z,20.20
2022-12-05T22:13:47.046Z,20.45
2022-12-05T22:16:15.203Z,20.10
2022-12-05T22:18:43.374Z,19.27
2022-12-05T22:21:13.472Z,21.30
2022-12-05T22:26:17.676Z,19.67
2022-12-05T22:28:45.497Z,20.25
2022-12-05T22:31:15.172Z,20.73
2022-12-05T22:33:48.185Z,21.02
2022-12-05T22:36:17.339Z,20.58
2022-12-05T22:38:47.279Z,21.63
2022-12-05T22:43:44.709Z,21.75
2022-12-05T22:46:20.586Z,22.25
2022-12-05T22:48:49.089Z,22.50
2022-12-05T22:51:17.880Z,22.90
2022-12-05T22:53:45.496Z,22.17
2022-12-05T22:56:15.611Z,23.20
2022-12-05T23:01:13.500Z,22.83
2022-12-05T23:03:41.606Z,22.83
2022-12-05T23:06:11.908Z,23.83
2022-12-05T23:08:40.721Z,23.88
2022-12-05T23:11:09.101Z,23.05
2022-12-05T23:13:37.651Z,25.05
2022-12-05T23:16:26.472Z,25.67
2022-12-05T23:18:56.110Z,24.55
2022-12-05T23:21:38.086Z,23.00
2022-12-05T23:24:08.375Z,24.60
2022-12-05T23:26:38.862Z,23.75
2022-12-05T23:29:08.171Z,23.55
2022-12-05T23:31:35.597Z,24.10
2022-12-05T23:34:04.243Z,25.50
2022-12-05T23:36:33.369Z,23.67
2022-12-05T23:39:01.302Z,24.30
2022-12-05T23:41:29.706Z,24.83
2022-12-05T23:43:59.690Z,23.58
2022-12-05T23:48:55.950Z,24.13
2022-12-05T23:51:29.634Z,22.20
2022-12-05T23:54:01.377Z,23.85
2022-12-05T23:56:31.407Z,24.13
2022-12-05T23:58:59.883Z,24.90
